sensor_id;sensor_type;location;lat;lon;timestamp;pressure;altitude;pressure_sealevel;temperature;humidity
7586;BME280;12459;42.646;23.292;2023-08-30T00:14:30;92848.09;;;21.94;100.00
7586;BME280;12459;42.646;23.292;2023-08-30T00:29:33;92745.94;;;21.02;100.00
7586;BME280;12459;42.646;23.292;2023-08-30T00:44:34;92292.41;;;17.85;100.00
7586;BME280;12459;42.646;23.292;2023-08-30T00:59:36;92767.28;;;21.15;100.00
7586;BME280;12459;42.646;23.292;2023-08-30T01:15:06;92857.44;;;21.71;100.00
7586;BME280;12459;42.646;23.292;2023-08-30T01:30:11;92859.13;;;21.57;100.00
7586;BME280;12459;42.646;23.292;2023-08-30T01:45:14;92632.47;;;20.23;96.58
7586;BME280;12459;42.646;23.292;2023-08-30T02:00:16;92563.03;;;19.48;100.00
7586;BME280;12459;42.646;23.292;2023-08-30T02:15:18;92693.25;;;20.57;97.03
7586;BME280;12459;42.646;23.292;2023-08-30T02:30:20;92271.56;;;17.45;94.87
7586;BME280;12459;42.646;23.292;2023-08-30T02:45:22;92445.38;;;18.62;90.52
7586;BME280;12459;42.646;23.292;2023-08-30T03:00:23;92758.31;;;20.97;90.74
7586;BME280;12459;42.646;23.292;2023-08-30T03:15:25;92822.09;;;21.22;89.06
7586;BME280;12459;42.646;23.292;2023-08-30T03:30:27;92828.00;;;21.21;89.04
7586;BME280;12459;42.646;23.292;2023-08-30T03:45:28;92817.47;;;20.91;92.42
7586;BME280;12459;42.646;23.292;2023-08-30T04:00:30;92787.16;;;20.35;91.90
7586;BME280;12459;42.646;23.292;2023-08-30T04:15:33;92685.16;;;19.83;94.88
7586;BME280;12459;42.646;23.292;2023-08-30T04:30:36;92885.16;;;21.58;89.21
7586;BME280;12459;42.646;23.292;2023-08-30T04:45:39;92723.94;;;20.57;93.69
7586;BME280;12459;42.646;23.292;2023-08-30T05:00:40;92895.22;;;21.89;77.85
7586;BME280;12459;42.646;23.292;2023-08-30T05:15:42;92837.78;;;21.50;77.85
7586;BME280;12459;42.646;23.292;2023-08-30T05:30:44;92904.25;;;22.40;79.43
7586;BME280;12459;42.646;23.292;2023-08-30T05:45:46;92888.34;;;22.77;79.49
7586;BME280;12459;42.646;23.292;2023-08-30T06:00:48;92884.63;;;23.14;75.47
7586;BME280;12459;42.646;23.292;2023-08-30T06:15:51;92913.75;;;22.89;74.55
7586;BME280;12459;42.646;23.292;2023-08-30T06:30:53;92888.97;;;23.56;74.59
7586;BME280;12459;42.646;23.292;2023-08-30T06:45:57;92853.16;;;24.06;73.68
7586;BME280;12459;42.646;23.292;2023-08-30T07:01:00;92806.78;;;24.19;69.42
7586;BME280;12459;42.646;23.292;2023-08-30T07:16:01;92900.94;;;25.85;64.74
7586;BME280;12459;42.646;23.292;2023-08-30T07:31:04;92835.16;;;25.55;61.30
7586;BME280;12459;42.646;23.292;2023-08-30T07:46:07;92902.81;;;26.15;59.19
7586;BME280;12459;42.646;23.292;2023-08-30T08:01:09;92934.19;;;26.00;57.67
7586;BME280;12459;42.646;23.292;2023-08-30T08:16:11;92916.25;;;26.18;60.47
7586;BME280;12459;42.646;23.292;2023-08-30T08:31:13;92929.47;;;26.01;58.50
7586;BME280;12459;42.646;23.292;2023-08-30T08:46:15;92934.09;;;25.87;58.98
7586;BME280;12459;42.646;23.292;2023-08-30T09:01:18;92905.53;;;25.77;59.43
7586;BME280;12459;42.646;23.292;2023-08-30T09:16:35;92900.72;;;26.58;60.20
7586;BME280;12459;42.646;23.292;2023-08-30T09:31:38;92870.00;;;26.73;55.47
7586;BME280;12459;42.646;23.292;2023-08-30T09:46:45;92913.97;;;26.41;55.79
7586;BME280;12459;42.646;23.292;2023-08-30T10:01:53;92897.97;;;27.49;56.56
7586;BME280;12459;42.646;23.292;2023-08-30T10:17:01;92868.53;;;27.30;56.46
7586;BME280;12459;42.646;23.292;2023-08-30T10:32:04;92879.00;;;26.87;56.13
7586;BME280;12459;42.646;23.292;2023-08-30T10:47:07;92840.38;;;27.38;54.09
7586;BME280;12459;42.646;23.292;2023-08-30T11:02:09;92858.81;;;27.69;50.89
7586;BME280;12459;42.646;23.292;2023-08-30T11:17:11;92761.72;;;27.89;50.38
7586;BME280;12459;42.646;23.292;2023-08-30T11:32:12;92823.28;;;29.09;47.39
7586;BME280;12459;42.646;23.292;2023-08-30T11:47:23;92790.31;;;29.32;49.39
7586;BME280;12459;42.646;23.292;2023-08-30T12:02:26;92771.84;;;29.19;44.63
7586;BME280;12459;42.646;23.292;2023-08-30T12:17:27;92738.25;;;29.36;40.59
7586;BME280;12459;42.646;23.292;2023-08-30T12:32:29;92762.50;;;29.66;39.77
7586;BME280;12459;42.646;23.292;2023-08-30T12:47:31;92761.97;;;29.03;41.94
7586;BME280;12459;42.646;23.292;2023-08-30T13:02:32;92772.09;;;28.80;40.21
7586;BME280;12459;42.646;23.292;2023-08-30T13:17:34;92573.03;;;27.75;38.56
7586;BME280;12459;42.646;23.292;2023-08-30T13:32:36;92692.41;;;28.69;36.68
7586;BME280;12459;42.646;23.292;2023-08-30T13:47:38;92709.63;;;28.33;36.91
7586;BME280;12459;42.646;23.292;2023-08-30T14:02:40;92784.03;;;28.75;37.12
7586;BME280;12459;42.646;23.292;2023-08-30T14:17:42;92752.22;;;28.53;36.27
7586;BME280;12459;42.646;23.292;2023-08-30T14:32:43;92753.94;;;28.35;36.74
7586;BME280;12459;42.646;23.292;2023-08-30T14:47:45;92704.03;;;27.37;37.83
7586;BME280;12459;42.646;23.292;2023-08-30T15:02:47;92637.00;;;26.87;38.01
7586;BME280;12459;42.646;23.292;2023-08-30T15:17:49;92861.94;;;27.86;47.05
7586;BME280;12459;42.646;23.292;2023-08-30T15:32:51;92880.19;;;27.37;48.58
7586;BME280;12459;42.646;23.292;2023-08-30T15:47:53;92861.88;;;26.94;48.85
7586;BME280;12459;42.646;23.292;2023-08-30T16:02:55;92816.72;;;26.44;49.29
7586;BME280;12459;42.646;23.292;2023-08-30T16:17:59;92820.28;;;27.16;45.95
7586;BME280;12459;42.646;23.292;2023-08-30T16:33:01;92899.47;;;26.22;49.72
7586;BME280;12459;42.646;23.292;2023-08-30T16:48:03;92934.84;;;25.88;51.69
7586;BME280;12459;42.646;23.292;2023-08-30T17:03:08;92894.00;;;25.35;52.94
7586;BME280;12459;42.646;23.292;2023-08-30T17:18:10;92816.88;;;24.36;53.63
7586;BME280;12459;42.646;23.292;2023-08-30T17:33:11;92995.09;;;25.26;54.30
7586;BME280;12459;42.646;23.292;2023-08-30T17:48:14;92879.59;;;23.98;55.11
7586;BME280;12459;42.646;23.292;2023-08-30T18:03:16;93038.00;;;24.82;55.12
7586;BME280;12459;42.646;23.292;2023-08-30T18:18:18;92994.16;;;24.41;55.16
7586;BME280;12459;42.646;23.292;2023-08-30T18:33:20;92831.50;;;22.92;56.07
7586;BME280;12459;42.646;23.292;2023-08-30T18:48:22;92958.38;;;23.47;56.29
7586;BME280;12459;42.646;23.292;2023-08-30T19:03:23;93062.44;;;24.22;55.11
7586;BME280;12459;42.646;23.292;2023-08-30T19:18:26;93099.59;;;24.06;55.82
7586;BME280;12459;42.646;23.292;2023-08-30T19:33:30;93095.88;;;23.76;56.61
7586;BME280;12459;42.646;23.292;2023-08-30T19:48:32;93014.34;;;23.13;56.66
7586;BME280;12459;42.646;23.292;2023-08-30T20:03:34;93130.97;;;23.72;57.20
7586;BME280;12459;42.646;23.292;2023-08-30T20:18:36;93141.81;;;24.50;55.62
7586;BME280;12459;42.646;23.292;2023-08-30T20:33:38;93154.59;;;24.08;57.30
7586;BME280;12459;42.646;23.292;2023-08-30T20:48:40;93126.31;;;22.79;59.87
7586;BME280;12459;42.646;23.292;2023-08-30T21:03:42;93107.59;;;22.50;59.43
7586;BME280;12459;42.646;23.292;2023-08-30T21:18:44;93134.91;;;22.50;59.34
7586;BME280;12459;42.646;23.292;2023-08-30T21:33:46;92982.25;;;21.39;59.79
7586;BME280;12459;42.646;23.292;2023-08-30T21:48:53;93211.94;;;23.08;59.14
7586;BME280;12459;42.646;23.292;2023-08-30T22:03:55;93195.78;;;23.15;58.71
7586;BME280;12459;42.646;23.292;2023-08-30T22:18:57;93187.97;;;22.80;59.49
7586;BME280;12459;42.646;23.292;2023-08-30T22:33:59;93155.25;;;22.43;60.75
7586;BME280;12459;42.646;23.292;2023-08-30T22:49:01;93206.75;;;22.67;61.31
7586;BME280;12459;42.646;23.292;2023-08-30T23:04:03;93202.22;;;22.53;61.03
7586;BME280;12459;42.646;23.292;2023-08-30T23:19:05;93094.03;;;21.76;60.58
7586;BME280;12459;42.646;23.292;2023-08-30T23:34:06;93167.81;;;22.24;61.75
7586;BME280;12459;42.646;23.292;2023-08-30T23:49:09;93113.06;;;21.64;62.63
